Time;durP1;ratioP1;P1;durP2;ratioP2;P2;SDS_P1;SDS_P2;PMS_P1;PMS_P2;Temp;Humidity;BMP_temperature;BMP_pressure;BME280_temperature;BME280_humidity;BME280_pressure;Samples;Min_cycle;Max_cycle;Signal;HPM_P1;HPM_P2
2024/03/15 00:01:23;;;;;;;;;;;7.00;99.90;;;;;;5032148;28;19959;-61
2024/03/15 00:03:48;;;;;;;;;;;6.90;99.90;;;;;;5040165;28;19913;-61
2024/03/15 00:06:17;;;;;;;;;;;6.80;99.90;;;;;;5044801;28;19924;-60
2024/03/15 00:08:43;;;;;;;;;;;6.80;99.90;;;;;;5034947;28;19913;-60
2024/03/15 00:11:08;;;;;;;;;;;6.70;99.90;;;;;;5039343;28;19909;-59
2024/03/15 00:13:34;;;;;;;;;;;6.80;99.90;;;;;;5040301;28;19916;-61
2024/03/15 00:15:59;;;;;;;;;;;6.80;99.90;;;;;;5051307;28;19909;-61
2024/03/15 00:18:25;;;;;;;;;;;6.80;99.90;;;;;;5051315;28;19912;-61
2024/03/15 00:20:50;;;;;;;;;;;6.90;99.90;;;;;;5049926;28;19920;-61
2024/03/15 00:23:17;;;;;;;;;;;6.80;99.90;;;;;;5045140;28;19986;-60
2024/03/15 00:25:42;;;;;;;;;;;6.80;99.90;;;;;;5042940;28;19920;-60
2024/03/15 00:28:08;;;;;;;;;;;6.90;99.90;;;;;;5047016;28;19939;-60
2024/03/15 00:30:34;;;;;;;;;;;6.80;99.90;;;;;;5031675;28;19932;-61
2024/03/15 00:32:59;;;;;;;;;;;6.80;99.90;;;;;;5039809;28;20399;-61
2024/03/15 00:35:26;;;;;;;;;;;6.90;99.90;;;;;;5039624;28;19919;-60
2024/03/15 00:37:52;;;;;;;;;;;6.90;99.90;;;;;;5031182;28;19913;-61
2024/03/15 00:40:17;;;;;;;;;;;6.90;99.90;;;;;;5039850;28;19940;-61
2024/03/15 00:42:43;;;;;;;;;;;6.80;99.90;;;;;;5031417;28;19917;-59
2024/03/15 00:45:10;;;;;;;;;;;6.80;99.90;;;;;;5039520;28;19944;-60
2024/03/15 00:47:35;;;;;;;;;;;6.90;99.90;;;;;;5031272;28;19952;-61
2024/03/15 00:50:01;;;;;;;;;;;6.90;99.90;;;;;;5030810;28;20407;-57
2024/03/15 00:52:26;;;;;;;;;;;6.90;99.90;;;;;;5039895;28;19936;-61
2024/03/15 00:54:52;;;;;;;;;;;6.80;99.90;;;;;;5033084;28;19952;-61
2024/03/15 00:57:17;;;;;;;;;;;6.80;99.90;;;;;;5037412;28;20007;-59
2024/03/15 00:59:43;;;;;;;;;;;6.80;99.90;;;;;;5047720;28;20312;-58
2024/03/15 01:02:08;;;;;;;;;;;6.80;99.90;;;;;;5039316;28;20393;-59
2024/03/15 01:04:34;;;;;;;;;;;6.90;99.90;;;;;;5031381;28;19966;-59
2024/03/15 01:07:01;;;;;;;;;;;6.90;99.90;;;;;;5050526;28;20012;-60
2024/03/15 01:09:27;;;;;;;;;;;6.90;99.90;;;;;;5036149;28;19944;-60
2024/03/15 01:11:52;;;;;;;;;;;6.90;99.90;;;;;;5039081;28;19978;-60
2024/03/15 01:14:18;;;;;;;;;;;6.90;99.90;;;;;;5031146;28;19966;-56
2024/03/15 01:16:46;;;;;;;;;;;6.90;99.90;;;;;;5047725;28;19912;-60
2024/03/15 01:19:12;;;;;;;;;;;6.80;99.90;;;;;;5042410;28;20000;-59
2024/03/15 01:21:38;;;;;;;;;;;6.80;99.90;;;;;;5034495;28;20421;-59
2024/03/15 01:24:03;;;;;;;;;;;6.70;99.90;;;;;;5039275;28;19913;-59
2024/03/15 01:26:29;;;;;;;;;;;6.70;99.90;;;;;;5037461;28;19920;-61
2024/03/15 01:28:54;;;;;;;;;;;6.70;99.90;;;;;;5031642;28;19995;-59
2024/03/15 01:31:19;;;;;;;;;;;6.70;99.90;;;;;;5030858;28;19913;-60
2024/03/15 01:33:46;;;;;;;;;;;6.50;99.90;;;;;;5039079;28;19913;-58
2024/03/15 01:36:12;;;;;;;;;;;6.50;99.90;;;;;;5043307;28;19912;-60
2024/03/15 01:38:38;;;;;;;;;;;6.40;99.90;;;;;;5040948;28;20007;-60
2024/03/15 01:41:03;;;;;;;;;;;6.40;99.90;;;;;;5047470;28;20266;-60
2024/03/15 01:43:29;;;;;;;;;;;6.40;99.90;;;;;;5030785;28;19905;-59
2024/03/15 01:45:54;;;;;;;;;;;6.40;99.90;;;;;;5038852;28;19923;-59
2024/03/15 01:48:20;;;;;;;;;;;6.50;99.90;;;;;;5038488;28;19920;-59
2024/03/15 01:50:47;;;;;;;;;;;6.40;99.90;;;;;;5031882;28;19928;-59
2024/03/15 01:53:14;;;;;;;;;;;6.20;99.90;;;;;;5042718;28;19909;-57
2024/03/15 01:55:39;;;;;;;;;;;6.30;99.90;;;;;;5042284;28;19909;-60
2024/03/15 01:58:05;;;;;;;;;;;6.30;99.90;;;;;;5030245;28;20428;-61
2024/03/15 02:00:30;;;;;;;;;;;6.30;99.90;;;;;;5045663;28;19923;-60
2024/03/15 02:02:56;;;;;;;;;;;6.20;99.90;;;;;;5031406;28;19909;-58
2024/03/15 02:05:22;;;;;;;;;;;6.10;99.90;;;;;;5030349;28;20579;-60
2024/03/15 02:07:50;;;;;;;;;;;6.10;99.90;;;;;;5030087;28;19917;-59
2024/03/15 02:10:15;;;;;;;;;;;6.10;99.90;;;;;;5030960;28;19913;-58
2024/03/15 02:12:41;;;;;;;;;;;6.00;99.90;;;;;;5030758;28;19905;-58
2024/03/15 02:15:07;;;;;;;;;;;6.00;99.90;;;;;;5030784;28;19925;-60
2024/03/15 02:17:33;;;;;;;;;;;6.00;99.90;;;;;;5030402;28;20391;-60
2024/03/15 02:19:59;;;;;;;;;;;5.80;99.90;;;;;;5029888;28;19982;-60
2024/03/15 02:22:24;;;;;;;;;;;5.70;99.90;;;;;;5038425;28;19905;-59
2024/03/15 02:24:50;;;;;;;;;;;5.70;99.90;;;;;;5039948;28;19916;-60
2024/03/15 02:27:15;;;;;;;;;;;5.80;99.90;;;;;;5042002;28;19913;-58
2024/03/15 02:29:41;;;;;;;;;;;5.70;99.90;;;;;;5041809;28;19905;-61
2024/03/15 02:32:07;;;;;;;;;;;5.50;99.90;;;;;;5047124;28;19916;-60
2024/03/15 02:34:34;;;;;;;;;;;5.50;99.90;;;;;;5037377;28;20357;-61
2024/03/15 02:37:00;;;;;;;;;;;5.40;99.90;;;;;;5039212;28;19916;-60
2024/03/15 02:39:26;;;;;;;;;;;5.30;99.90;;;;;;5038350;28;19913;-60
2024/03/15 02:41:52;;;;;;;;;;;5.30;99.90;;;;;;5030469;28;19909;-61
2024/03/15 02:44:18;;;;;;;;;;;5.30;99.90;;;;;;5030280;28;19991;-59
2024/03/15 02:46:45;;;;;;;;;;;5.10;99.90;;;;;;5030089;28;20844;-59
2024/03/15 02:49:10;;;;;;;;;;;5.00;99.90;;;;;;5031390;28;19912;-59
2024/03/15 02:51:36;;;;;;;;;;;5.00;99.90;;;;;;5034051;28;20292;-61
2024/03/15 02:54:01;;;;;;;;;;;5.00;99.90;;;;;;5034069;28;20001;-58
2024/03/15 02:56:26;;;;;;;;;;;5.00;99.90;;;;;;5033948;28;19920;-59
2024/03/15 02:58:52;;;;;;;;;;;5.00;99.90;;;;;;5042938;28;19916;-60
2024/03/15 03:01:17;;;;;;;;;;;5.10;99.90;;;;;;5048954;28;20360;-60
2024/03/15 03:03:43;;;;;;;;;;;5.00;99.90;;;;;;5041934;28;19909;-60
2024/03/15 03:06:09;;;;;;;;;;;5.00;99.90;;;;;;5033154;28;20012;-61
2024/03/15 03:08:35;;;;;;;;;;;5.10;99.90;;;;;;5033097;28;19951;-61
2024/03/15 03:11:01;;;;;;;;;;;5.20;99.90;;;;;;5044936;28;19916;-58
2024/03/15 03:13:27;;;;;;;;;;;5.20;99.90;;;;;;5047520;28;19909;-61
2024/03/15 03:15:52;;;;;;;;;;;5.20;99.90;;;;;;5043673;28;19920;-61
2024/03/15 03:18:18;;;;;;;;;;;5.20;99.90;;;;;;5040130;28;19936;-59
2024/03/15 03:20:43;;;;;;;;;;;5.20;99.90;;;;;;5041829;28;19941;-61
2024/03/15 03:23:09;;;;;;;;;;;5.20;99.90;;;;;;5033426;28;19920;-61
2024/03/15 03:25:34;;;;;;;;;;;5.20;99.90;;;;;;5033556;28;20658;-61
2024/03/15 03:28:00;;;;;;;;;;;5.20;99.90;;;;;;5032694;28;20071;-59
2024/03/15 03:30:26;;;;;;;;;;;5.20;99.90;;;;;;5033296;28;19917;-60
2024/03/15 03:32:51;;;;;;;;;;;5.20;99.90;;;;;;5032945;28;19924;-59
2024/03/15 03:35:17;;;;;;;;;;;5.20;99.90;;;;;;5032543;28;19927;-61
2024/03/15 03:37:43;;;;;;;;;;;5.20;99.90;;;;;;5031306;28;19905;-58
2024/03/15 03:40:14;;;;;;;;;;;5.20;99.90;;;;;;5031838;28;19944;-59
2024/03/15 03:42:43;;;;;;;;;;;5.10;99.90;;;;;;5032711;28;19913;-58
2024/03/15 03:45:15;;;;;;;;;;;5.20;99.90;;;;;;5040555;28;19916;-57
2024/03/15 03:47:45;;;;;;;;;;;5.10;99.90;;;;;;5032457;28;20012;-58
2024/03/15 03:50:13;;;;;;;;;;;5.10;99.90;;;;;;5032105;28;19909;-59
2024/03/15 03:52:43;;;;;;;;;;;5.10;99.90;;;;;;5032851;28;20306;-61
2024/03/15 03:55:08;;;;;;;;;;;5.00;99.90;;;;;;5040565;28;19952;-61
2024/03/15 03:57:35;;;;;;;;;;;5.00;99.90;;;;;;5032506;28;19944;-61
2024/03/15 04:00:07;;;;;;;;;;;5.10;99.90;;;;;;5031436;28;20013;-59
2024/03/15 04:02:32;;;;;;;;;;;5.10;99.90;;;;;;5032574;28;19909;-60
2024/03/15 04:04:58;;;;;;;;;;;5.00;99.90;;;;;;5032245;28;19909;-59
2024/03/15 04:07:30;;;;;;;;;;;4.90;99.90;;;;;;5031883;28;19913;-60
2024/03/15 04:09:56;;;;;;;;;;;5.00;99.90;;;;;;5031935;28;20281;-59
2024/03/15 04:12:21;;;;;;;;;;;5.00;99.90;;;;;;5032435;28;19916;-58
2024/03/15 04:14:49;;;;;;;;;;;5.00;99.90;;;;;;5031897;28;19917;-59
2024/03/15 04:17:19;;;;;;;;;;;4.90;99.90;;;;;;5022139;28;19952;-60
2024/03/15 04:19:45;;;;;;;;;;;4.90;99.90;;;;;;5031315;28;20384;-60
2024/03/15 04:22:11;;;;;;;;;;;4.80;99.90;;;;;;5031694;28;19913;-58
2024/03/15 04:24:36;;;;;;;;;;;4.80;99.90;;;;;;5032062;28;19917;-59
2024/03/15 04:27:03;;;;;;;;;;;4.80;99.90;;;;;;5031594;28;19916;-60
2024/03/15 04:29:30;;;;;;;;;;;4.80;99.90;;;;;;5031326;28;19971;-60
2024/03/15 04:31:57;;;;;;;;;;;4.70;99.90;;;;;;5031814;28;19913;-60
2024/03/15 04:34:24;;;;;;;;;;;4.80;99.90;;;;;;5037324;28;19974;-60
2024/03/15 04:36:50;;;;;;;;;;;4.80;99.90;;;;;;5034851;28;19913;-60
2024/03/15 04:39:17;;;;;;;;;;;4.70;99.90;;;;;;5038374;28;19915;-58
2024/03/15 04:41:43;;;;;;;;;;;4.70;99.90;;;;;;5039578;28;20008;-59
2024/03/15 04:44:08;;;;;;;;;;;4.60;99.90;;;;;;5031045;28;20327;-59
2024/03/15 04:46:34;;;;;;;;;;;4.50;99.90;;;;;;5030925;28;20350;-60
2024/03/15 04:48:59;;;;;;;;;;;4.50;99.90;;;;;;5030461;28;20539;-59
2024/03/15 04:51:24;;;;;;;;;;;4.40;99.90;;;;;;5030884;28;19982;-61
2024/03/15 04:53:50;;;;;;;;;;;4.40;99.90;;;;;;5030926;28;19920;-59
2024/03/15 04:56:16;;;;;;;;;;;4.40;99.90;;;;;;5031006;28;19948;-57
2024/03/15 04:58:41;;;;;;;;;;;4.40;99.90;;;;;;5038503;28;19916;-60
2024/03/15 05:01:07;;;;;;;;;;;4.50;99.90;;;;;;5039010;28;19972;-59
2024/03/15 05:03:32;;;;;;;;;;;4.40;99.90;;;;;;5039103;28;19913;-58
2024/03/15 05:05:58;;;;;;;;;;;4.40;99.90;;;;;;5049015;28;19948;-60
2024/03/15 05:08:24;;;;;;;;;;;4.40;99.90;;;;;;5036237;28;19920;-58
2024/03/15 05:10:49;;;;;;;;;;;4.40;99.90;;;;;;5031834;28;19931;-59
2024/03/15 05:13:14;;;;;;;;;;;4.50;99.90;;;;;;5037125;28;19948;-58
2024/03/15 05:15:40;;;;;;;;;;;4.50;99.90;;;;;;5030568;28;19913;-58
2024/03/15 05:18:07;;;;;;;;;;;4.50;99.90;;;;;;5033018;28;19912;-58
2024/03/15 05:20:33;;;;;;;;;;;4.50;99.90;;;;;;5035351;28;20351;-60
2024/03/15 05:22:59;;;;;;;;;;;4.60;99.90;;;;;;5030311;28;19953;-60
2024/03/15 05:25:24;;;;;;;;;;;4.60;99.90;;;;;;5038686;28;19954;-60
2024/03/15 05:27:49;;;;;;;;;;;4.50;99.90;;;;;;5038035;28;19917;-58
2024/03/15 05:30:17;;;;;;;;;;;4.50;99.90;;;;;;5035064;28;20416;-59
2024/03/15 05:32:43;;;;;;;;;;;4.50;99.90;;;;;;5042121;28;20061;-60
2024/03/15 05:35:09;;;;;;;;;;;4.40;99.90;;;;;;5038452;28;19966;-59
2024/03/15 05:37:35;;;;;;;;;;;4.50;99.90;;;;;;5030277;28;19913;-59
2024/03/15 05:40:01;;;;;;;;;;;4.50;99.90;;;;;;5040707;28;19945;-60
2024/03/15 05:42:28;;;;;;;;;;;4.50;99.90;;;;;;5042319;28;20455;-61
2024/03/15 05:44:53;;;;;;;;;;;4.50;99.90;;;;;;5031903;28;19921;-60
2024/03/15 05:47:19;;;;;;;;;;;4.50;99.90;;;;;;5034931;28;19913;-59
2024/03/15 05:49:45;;;;;;;;;;;4.40;99.90;;;;;;5032649;28;19919;-58
2024/03/15 05:52:10;;;;;;;;;;;4.40;99.90;;;;;;5029094;28;20033;-60
2024/03/15 05:54:36;;;;;;;;;;;4.40;99.90;;;;;;5029344;28;19945;-57
2024/03/15 05:57:02;;;;;;;;;;;4.40;99.90;;;;;;5029754;28;19939;-61
2024/03/15 05:59:28;;;;;;;;;;;4.40;99.90;;;;;;5029236;28;20380;-59
2024/03/15 06:01:55;;;;;;;;;;;4.40;99.90;;;;;;5034820;28;19959;-61
2024/03/15 06:04:20;;;;;;;;;;;4.40;99.90;;;;;;5035792;28;19923;-60
2024/03/15 06:06:46;;;;;;;;;;;4.40;99.90;;;;;;5040758;28;19924;-61
2024/03/15 06:09:13;;;;;;;;;;;4.50;99.90;;;;;;5033076;28;19912;-61
2024/03/15 06:11:38;;;;;;;;;;;4.60;99.90;;;;;;5033973;28;19909;-59
2024/03/15 06:14:04;;;;;;;;;;;4.70;99.90;;;;;;5029511;28;20403;-59
2024/03/15 06:16:31;;;;;;;;;;;4.90;99.90;;;;;;5029377;28;19913;-61
2024/03/15 06:18:57;;;;;;;;;;;5.00;99.90;;;;;;5045086;28;19943;-60
2024/03/15 06:21:22;;;;;;;;;;;5.20;99.90;;;;;;5034856;28;19974;-60
2024/03/15 06:23:48;;;;;;;;;;;5.40;99.90;;;;;;5034070;28;20677;-61
2024/03/15 06:26:14;;;;;;;;;;;5.50;99.90;;;;;;5033424;28;19920;-61
2024/03/15 06:28:39;;;;;;;;;;;5.60;99.90;;;;;;5041070;28;19913;-60
2024/03/15 06:31:05;;;;;;;;;;;5.70;99.90;;;;;;5042414;28;19909;-60
2024/03/15 06:33:33;;;;;;;;;;;5.70;99.90;;;;;;5040079;28;19908;-60
2024/03/15 06:36:00;;;;;;;;;;;5.80;99.90;;;;;;5033639;28;20350;-60
2024/03/15 06:38:51;;;;;;;;;;;5.90;99.90;;;;;;5032639;28;19952;-59
2024/03/15 06:44:19;;;;;;;;;;;6.00;99.90;;;;;;5035189;28;20039;-58
2024/03/15 06:47:52;;;;;;;;;;;5.90;99.90;;;;;;5049125;28;20015;-60
2024/03/15 06:49:54;;;;;;;;;;;6.00;99.90;;;;;;5023251;28;19920;-60
2024/03/15 06:52:35;;;;;;;;;;;6.10;99.90;;;;;;5032437;28;19913;-60
2024/03/15 06:55:01;;;;;;;;;;;6.10;99.90;;;;;;5042761;28;20043;-59
2024/03/15 06:57:31;;;;;;;;;;;6.20;99.90;;;;;;5046139;28;20420;-60
2024/03/15 06:59:57;;;;;;;;;;;6.30;99.90;;;;;;5031712;28;19905;-59
2024/03/15 07:02:23;;;;;;;;;;;6.40;99.90;;;;;;5045805;28;20281;-59
2024/03/15 07:04:50;;;;;;;;;;;6.50;99.90;;;;;;5043819;28;19909;-60
2024/03/15 07:07:22;;;;;;;;;;;6.60;99.90;;;;;;5052126;28;19916;-60
2024/03/15 07:09:47;;;;;;;;;;;6.60;99.90;;;;;;5043497;28;19917;-60
2024/03/15 07:12:15;;;;;;;;;;;6.50;99.90;;;;;;5039801;28;19909;-60
2024/03/15 07:14:42;;;;;;;;;;;6.60;99.90;;;;;;5039845;28;19920;-61
2024/03/15 07:17:09;;;;;;;;;;;6.70;99.90;;;;;;5034968;28;20303;-60
2024/03/15 07:19:35;;;;;;;;;;;6.80;99.90;;;;;;5044384;28;19913;-59
2024/03/15 07:22:00;;;;;;;;;;;6.90;99.90;;;;;;5031584;28;20410;-60
2024/03/15 07:24:26;;;;;;;;;;;6.90;99.90;;;;;;5039993;28;19909;-61
2024/03/15 07:26:51;;;;;;;;;;;7.00;99.90;;;;;;5040872;28;19953;-60
2024/03/15 07:29:17;;;;;;;;;;;7.00;99.90;;;;;;5038322;28;19917;-59
2024/03/15 07:31:42;;;;;;;;;;;7.00;99.90;;;;;;5031653;28;19931;-61
2024/03/15 07:34:08;;;;;;;;;;;7.00;99.90;;;;;;5039604;28;19913;-60
2024/03/15 07:36:33;;;;;;;;;;;7.10;99.90;;;;;;5038774;28;19913;-61
2024/03/15 07:38:59;;;;;;;;;;;7.10;99.90;;;;;;5041341;28;19913;-61
2024/03/15 07:41:28;;;;;;;;;;;7.20;99.90;;;;;;5045777;28;19909;-60
2024/03/15 07:43:54;;;;;;;;;;;7.20;99.90;;;;;;5032611;28;19920;-60
2024/03/15 07:46:19;;;;;;;;;;;7.20;99.90;;;;;;5042805;28;19912;-60
2024/03/15 07:48:45;;;;;;;;;;;7.30;99.90;;;;;;5042099;28;19950;-61
2024/03/15 07:51:10;;;;;;;;;;;7.30;99.90;;;;;;5039863;28;20367;-59
2024/03/15 07:53:36;;;;;;;;;;;7.40;99.90;;;;;;5031461;28;19913;-61
2024/03/15 07:56:03;;;;;;;;;;;7.60;99.90;;;;;;5049898;28;19947;-61
2024/03/15 07:58:29;;;;;;;;;;;7.70;99.90;;;;;;5036353;28;19989;-60
2024/03/15 08:00:56;;;;;;;;;;;8.00;99.90;;;;;;5032370;28;20413;-60
2024/03/15 08:03:22;;;;;;;;;;;8.20;99.90;;;;;;5037917;28;19913;-58
2024/03/15 08:05:48;;;;;;;;;;;8.40;99.90;;;;;;5031120;28;19944;-60
2024/03/15 08:08:14;;;;;;;;;;;8.50;99.90;;;;;;5042268;28;20424;-61
2024/03/15 08:10:39;;;;;;;;;;;8.80;99.90;;;;;;5035024;28;19916;-59
2024/03/15 08:13:07;;;;;;;;;;;9.00;99.90;;;;;;5030845;28;19920;-61
2024/03/15 08:15:33;;;;;;;;;;;9.20;99.90;;;;;;5045512;28;19909;-59
2024/03/15 08:18:03;;;;;;;;;;;9.50;99.90;;;;;;5033638;28;19909;-58
2024/03/15 08:20:28;;;;;;;;;;;10.00;99.90;;;;;;5044686;28;19909;-60
2024/03/15 08:22:55;;;;;;;;;;;10.40;99.90;;;;;;5032027;28;19919;-61
2024/03/15 08:25:21;;;;;;;;;;;10.70;99.90;;;;;;5045510;28;19948;-60
2024/03/15 08:27:46;;;;;;;;;;;11.20;99.90;;;;;;5030411;28;19956;-60
2024/03/15 08:30:15;;;;;;;;;;;11.90;99.90;;;;;;5046741;28;19932;-59
2024/03/15 08:32:40;;;;;;;;;;;12.50;99.90;;;;;;5038953;28;19915;-61
2024/03/15 08:35:08;;;;;;;;;;;13.20;99.90;;;;;;5038593;28;19909;-59
2024/03/15 08:37:33;;;;;;;;;;;14.00;99.90;;;;;;5030256;28;19913;-59
2024/03/15 08:39:59;;;;;;;;;;;14.70;99.90;;;;;;5032088;28;19913;-61
2024/03/15 08:42:24;;;;;;;;;;;15.20;99.90;;;;;;5041993;28;19915;-61
2024/03/15 08:44:50;;;;;;;;;;;15.40;99.90;;;;;;5049054;28;20147;-61
2024/03/15 08:47:18;;;;;;;;;;;15.80;99.90;;;;;;5034049;28;20365;-61
2024/03/15 08:49:45;;;;;;;;;;;15.70;99.90;;;;;;5033346;28;20316;-61
2024/03/15 08:52:15;;;;;;;;;;;15.70;99.90;;;;;;5043912;28;20004;-60
2024/03/15 08:54:41;;;;;;;;;;;15.90;99.90;;;;;;5049984;28;20349;-61
2024/03/15 08:57:10;;;;;;;;;;;15.70;99.90;;;;;;5030504;28;19948;-60
2024/03/15 08:59:36;;;;;;;;;;;15.60;99.90;;;;;;5029372;28;19919;-58
2024/03/15 09:02:03;;;;;;;;;;;15.90;99.90;;;;;;5040380;28;19909;-60
2024/03/15 09:04:28;;;;;;;;;;;16.70;99.90;;;;;;5035633;28;20005;-63
2024/03/15 09:06:55;;;;;;;;;;;17.20;99.90;;;;;;5038575;28;20359;-61
2024/03/15 09:09:31;;;;;;;;;;;17.60;99.90;;;;;;5041057;28;19913;-61
2024/03/15 09:11:58;;;;;;;;;;;17.70;99.90;;;;;;5040253;28;19920;-60
2024/03/15 09:14:24;;;;;;;;;;;17.30;99.90;;;;;;5029634;28;20028;-58
2024/03/15 09:16:50;;;;;;;;;;;16.60;99.90;;;;;;5038219;28;19921;-61
2024/03/15 09:19:17;;;;;;;;;;;16.00;99.90;;;;;;5040959;28;19975;-61
2024/03/15 09:21:44;;;;;;;;;;;15.80;99.90;;;;;;5049583;28;19915;-59
2024/03/15 09:24:09;;;;;;;;;;;15.50;99.90;;;;;;5032808;28;20254;-62
2024/03/15 09:26:35;;;;;;;;;;;15.30;99.90;;;;;;5016117;28;19967;-61
2024/03/15 09:29:01;;;;;;;;;;;15.20;99.90;;;;;;5045741;28;19912;-59
2024/03/15 09:31:28;;;;;;;;;;;15.30;99.90;;;;;;5029396;28;19910;-60
2024/03/15 09:33:57;;;;;;;;;;;15.20;99.90;;;;;;5029175;28;19920;-61
2024/03/15 09:36:26;;;;;;;;;;;15.20;99.90;;;;;;5037603;28;20007;-60
2024/03/15 09:38:53;;;;;;;;;;;15.20;99.90;;;;;;5028546;28;19909;-60
2024/03/15 09:41:19;;;;;;;;;;;15.10;99.90;;;;;;5029379;28;19909;-61
2024/03/15 09:43:45;;;;;;;;;;;15.00;99.90;;;;;;5045808;28;20046;-60
2024/03/15 09:46:15;;;;;;;;;;;15.10;99.90;;;;;;5040648;28;20012;-60
2024/03/15 09:48:43;;;;;;;;;;;15.20;99.90;;;;;;5048482;28;19916;-59
2024/03/15 09:51:10;;;;;;;;;;;15.40;99.90;;;;;;5037424;28;20361;-59
2024/03/15 09:53:35;;;;;;;;;;;15.60;99.90;;;;;;5037293;28;19915;-60
2024/03/15 09:56:03;;;;;;;;;;;15.60;99.90;;;;;;5039378;28;20007;-60
2024/03/15 09:58:31;;;;;;;;;;;15.70;99.90;;;;;;5033538;28;19948;-58
2024/03/15 10:00:58;;;;;;;;;;;15.90;99.90;;;;;;5029964;28;19913;-60
2024/03/15 10:03:24;;;;;;;;;;;15.80;99.90;;;;;;5043737;28;20368;-59
2024/03/15 10:05:50;;;;;;;;;;;15.40;99.90;;;;;;5028533;28;19915;-57
2024/03/15 10:08:15;;;;;;;;;;;15.00;99.90;;;;;;5028042;28;19917;-58
2024/03/15 10:10:41;;;;;;;;;;;14.90;99.90;;;;;;5029240;28;19913;-61
2024/03/15 10:13:07;;;;;;;;;;;14.80;99.90;;;;;;5045129;28;19970;-60
2024/03/15 10:15:33;;;;;;;;;;;14.80;99.90;;;;;;5037027;28;19909;-60
2024/03/15 10:17:58;;;;;;;;;;;14.60;99.90;;;;;;5036543;28;20361;-62
2024/03/15 10:20:24;;;;;;;;;;;14.60;99.90;;;;;;5037106;28;19943;-60
2024/03/15 10:22:51;;;;;;;;;;;14.70;99.90;;;;;;5037256;28;19943;-62
2024/03/15 10:25:18;;;;;;;;;;;14.60;99.90;;;;;;5040319;28;19942;-58
2024/03/15 10:27:50;;;;;;;;;;;14.60;99.90;;;;;;5048609;28;19912;-60
2024/03/15 10:30:17;;;;;;;;;;;14.40;99.90;;;;;;5044597;28;20374;-62
2024/03/15 10:32:46;;;;;;;;;;;14.30;99.90;;;;;;5044816;28;19912;-62
2024/03/15 10:35:22;;;;;;;;;;;14.30;99.90;;;;;;5036715;28;19909;-62
2024/03/15 10:37:48;;;;;;;;;;;14.20;99.90;;;;;;5028216;28;19921;-59
2024/03/15 10:40:14;;;;;;;;;;;14.30;99.90;;;;;;5048548;28;19905;-61
2024/03/15 10:42:41;;;;;;;;;;;14.50;99.90;;;;;;5032994;28;20428;-62
2024/03/15 10:45:07;;;;;;;;;;;14.60;99.90;;;;;;5028153;28;19939;-60
2024/03/15 10:47:32;;;;;;;;;;;14.70;99.90;;;;;;5028609;28;19917;-60
2024/03/15 10:49:57;;;;;;;;;;;14.60;99.90;;;;;;5037598;28;19909;-61
2024/03/15 10:52:23;;;;;;;;;;;14.50;99.90;;;;;;5048240;28;19936;-62
2024/03/15 10:54:50;;;;;;;;;;;14.50;99.90;;;;;;5031533;28;19909;-60
2024/03/15 10:57:15;;;;;;;;;;;14.50;99.90;;;;;;5032231;28;20403;-61
2024/03/15 10:59:42;;;;;;;;;;;14.60;99.90;;;;;;5040291;28;19913;-61
2024/03/15 11:02:10;;;;;;;;;;;14.80;99.90;;;;;;5039748;28;19920;-62
2024/03/15 11:04:35;;;;;;;;;;;15.00;99.90;;;;;;5032572;28;20358;-60
2024/03/15 11:07:01;;;;;;;;;;;15.00;99.90;;;;;;5036301;28;19917;-62
2024/03/15 11:09:28;;;;;;;;;;;14.70;99.90;;;;;;5027844;28;19913;-62
2024/03/15 11:12:03;;;;;;;;;;;14.80;99.90;;;;;;5048609;28;19916;-62
2024/03/15 11:14:34;;;;;;;;;;;15.00;99.90;;;;;;5043470;28;20073;-62
2024/03/15 11:17:02;;;;;;;;;;;15.10;99.90;;;;;;5041495;28;19959;-58
2024/03/15 11:19:28;;;;;;;;;;;14.90;99.90;;;;;;5031565;28;19913;-56
2024/03/15 11:22:06;;;;;;;;;;;14.90;99.90;;;;;;5040654;28;19912;-57
2024/03/15 11:24:47;;;;;;;;;;;14.90;99.90;;;;;;5043247;28;20055;-55
2024/03/15 11:27:16;;;;;;;;;;;14.80;99.90;;;;;;5034966;28;19935;-57
2024/03/15 11:29:45;;;;;;;;;;;14.70;99.90;;;;;;5035207;28;20361;-55
2024/03/15 11:32:11;;;;;;;;;;;14.60;99.90;;;;;;5051278;28;19996;-58
2024/03/15 11:34:38;;;;;;;;;;;14.50;99.90;;;;;;5044931;28;19909;-56
2024/03/15 11:37:04;;;;;;;;;;;14.30;99.90;;;;;;5033503;28;19913;-54
2024/03/15 11:39:29;;;;;;;;;;;14.30;99.90;;;;;;5045174;28;20240;-54
2024/03/15 11:42:00;;;;;;;;;;;14.30;99.90;;;;;;5040392;28;19913;-54
2024/03/15 11:44:27;;;;;;;;;;;14.30;99.90;;;;;;5045808;28;20334;-57
2024/03/15 11:46:53;;;;;;;;;;;14.50;99.90;;;;;;5040061;28;20372;-56
2024/03/15 11:49:19;;;;;;;;;;;14.70;99.90;;;;;;5037387;28;19920;-54
2024/03/15 11:51:53;;;;;;;;;;;15.00;99.90;;;;;;5038989;28;19917;-58
2024/03/15 11:54:19;;;;;;;;;;;15.30;99.90;;;;;;5031139;28;19909;-57
2024/03/15 11:56:44;;;;;;;;;;;15.50;99.90;;;;;;5047138;28;19920;-59
2024/03/15 11:59:13;;;;;;;;;;;15.70;99.90;;;;;;5042331;28;19912;-61
2024/03/15 12:01:38;;;;;;;;;;;15.70;99.90;;;;;;5044080;28;19913;-60
2024/03/15 12:04:04;;;;;;;;;;;15.70;99.90;;;;;;5039202;28;19913;-57
2024/03/15 12:06:29;;;;;;;;;;;15.70;99.90;;;;;;5036285;28;19962;-57
2024/03/15 12:09:03;;;;;;;;;;;15.90;99.90;;;;;;5041821;28;20001;-57
2024/03/15 12:11:28;;;;;;;;;;;15.90;99.90;;;;;;5036843;28;19905;-58
2024/03/15 12:13:57;;;;;;;;;;;15.90;99.90;;;;;;5039665;28;20050;-58
2024/03/15 12:16:23;;;;;;;;;;;15.90;99.90;;;;;;5045669;28;20317;-60
2024/03/15 12:18:48;;;;;;;;;;;16.20;99.90;;;;;;5038444;28;19990;-57
2024/03/15 12:21:14;;;;;;;;;;;16.50;99.90;;;;;;5046549;28;20019;-57
2024/03/15 12:23:39;;;;;;;;;;;16.60;99.90;;;;;;5030579;28;19920;-55
2024/03/15 12:26:06;;;;;;;;;;;17.00;99.90;;;;;;5032645;28;19909;-58
2024/03/15 12:28:32;;;;;;;;;;;17.40;99.90;;;;;;5035544;28;19920;-57
2024/03/15 12:30:58;;;;;;;;;;;17.40;99.90;;;;;;5031688;28;19913;-56
2024/03/15 12:33:23;;;;;;;;;;;17.60;99.90;;;;;;5050480;28;19909;-56
2024/03/15 12:35:49;;;;;;;;;;;17.80;99.90;;;;;;5033392;28;19917;-54
2024/03/15 12:38:18;;;;;;;;;;;17.90;99.90;;;;;;5029587;28;20000;-60
2024/03/15 12:40:44;;;;;;;;;;;18.00;99.90;;;;;;5043455;28;20257;-57
2024/03/15 12:43:10;;;;;;;;;;;18.10;99.90;;;;;;5041954;28;19913;-61
2024/03/15 12:45:35;;;;;;;;;;;18.20;99.90;;;;;;5041486;28;19920;-60
2024/03/15 12:48:01;;;;;;;;;;;17.90;99.90;;;;;;5047538;28;19919;-58
2024/03/15 12:50:27;;;;;;;;;;;17.50;99.90;;;;;;5030199;28;20384;-62
2024/03/15 12:52:53;;;;;;;;;;;17.30;99.90;;;;;;5029673;28;19909;-53
2024/03/15 12:55:19;;;;;;;;;;;16.80;99.90;;;;;;5034157;28;19912;-55
2024/03/15 12:57:45;;;;;;;;;;;16.70;99.90;;;;;;5042075;28;20015;-54
2024/03/15 13:00:14;;;;;;;;;;;16.70;99.90;;;;;;5029217;28;19916;-54
2024/03/15 13:02:40;;;;;;;;;;;16.70;99.90;;;;;;5030042;28;20004;-54
2024/03/15 13:05:07;;;;;;;;;;;16.80;99.90;;;;;;5029483;28;19909;-53
2024/03/15 13:07:33;;;;;;;;;;;16.90;99.90;;;;;;5037802;28;20380;-55
2024/03/15 13:09:58;;;;;;;;;;;17.10;99.90;;;;;;5030505;28;19909;-54
2024/03/15 13:12:24;;;;;;;;;;;17.20;99.90;;;;;;5049563;28;20353;-56
2024/03/15 13:14:49;;;;;;;;;;;17.10;99.90;;;;;;5032643;28;19952;-56
2024/03/15 13:17:15;;;;;;;;;;;16.80;99.90;;;;;;5041523;28;19913;-54
2024/03/15 13:19:40;;;;;;;;;;;16.80;99.90;;;;;;5048799;28;20429;-54
2024/03/15 13:22:06;;;;;;;;;;;16.80;99.90;;;;;;5040995;28;19905;-60
2024/03/15 13:24:31;;;;;;;;;;;16.60;99.90;;;;;;5043495;28;19936;-55
2024/03/15 13:26:57;;;;;;;;;;;16.30;99.90;;;;;;5045550;28;19916;-56
2024/03/15 13:29:22;;;;;;;;;;;16.20;99.90;;;;;;5029256;28;19920;-56
2024/03/15 13:31:48;;;;;;;;;;;16.20;99.90;;;;;;5037608;28;20396;-60
2024/03/15 13:34:13;;;;;;;;;;;16.00;99.90;;;;;;5028375;28;19909;-51
2024/03/15 13:36:39;;;;;;;;;;;15.90;99.90;;;;;;5029028;28;20381;-53
2024/03/15 13:39:12;;;;;;;;;;;15.80;99.90;;;;;;5030945;28;19913;-57
2024/03/15 13:41:37;;;;;;;;;;;15.60;99.90;;;;;;5040959;28;19909;-57
2024/03/15 13:44:03;;;;;;;;;;;15.40;99.90;;;;;;5048832;28;19916;-55
2024/03/15 13:46:28;;;;;;;;;;;15.30;99.90;;;;;;5043484;28;19909;-57
2024/03/15 13:48:58;;;;;;;;;;;15.20;99.90;;;;;;5019549;28;20360;-54
2024/03/15 13:51:24;;;;;;;;;;;15.10;99.90;;;;;;5040962;28;19946;-57
2024/03/15 13:53:49;;;;;;;;;;;15.10;99.90;;;;;;5040491;28;20293;-60
2024/03/15 13:56:16;;;;;;;;;;;15.10;99.90;;;;;;5028988;28;19931;-57
2024/03/15 13:58:43;;;;;;;;;;;15.10;99.90;;;;;;5035696;28;19908;-55
2024/03/15 14:01:11;;;;;;;;;;;15.10;99.90;;;;;;5029691;28;20004;-58
2024/03/15 14:03:36;;;;;;;;;;;15.20;99.90;;;;;;5029246;28;20388;-58
2024/03/15 14:06:03;;;;;;;;;;;15.10;99.90;;;;;;5036971;28;19963;-55
2024/03/15 14:08:29;;;;;;;;;;;15.10;99.90;;;;;;5027995;28;20008;-57
2024/03/15 14:10:55;;;;;;;;;;;15.20;99.90;;;;;;5045960;28;20008;-57
2024/03/15 14:13:20;;;;;;;;;;;15.10;99.90;;;;;;5036483;28;20345;-57
2024/03/15 14:15:49;;;;;;;;;;;15.20;99.90;;;;;;5028748;28;19960;-54
2024/03/15 14:18:15;;;;;;;;;;;15.40;99.90;;;;;;5036430;28;19971;-54
2024/03/15 14:20:43;;;;;;;;;;;15.70;99.90;;;;;;5036108;28;19912;-58
2024/03/15 14:23:09;;;;;;;;;;;15.80;99.90;;;;;;5032056;28;19913;-55